sensor_id;sensor_type;location;lat;lon;timestamp;P1;durP1;ratioP1;P2;durP2;ratioP2
12956;SDS011;6543;48.836;10.092;2023-05-07T00:01:28;3.70;;;1.80;;
12956;SDS011;6543;48.836;10.092;2023-05-07T00:03:56;5.27;;;1.50;;
12956;SDS011;6543;48.836;10.092;2023-05-07T00:06:24;3.97;;;1.80;;
12956;SDS011;6543;48.836;10.092;2023-05-07T00:08:53;3.60;;;1.40;;
12956;SDS011;6543;48.836;10.092;2023-05-07T00:11:20;5.67;;;2.20;;
12956;SDS011;6543;48.836;10.092;2023-05-07T00:13:47;2.47;;;1.50;;
12956;SDS011;6543;48.836;10.092;2023-05-07T00:16:14;4.63;;;1.70;;
12956;SDS011;6543;48.836;10.092;2023-05-07T00:18:41;1.70;;;1.47;;
12956;SDS011;6543;48.836;10.092;2023-05-07T00:21:08;3.80;;;1.53;;
12956;SDS011;6543;48.836;10.092;2023-05-07T00:23:36;2.40;;;1.70;;
12956;SDS011;6543;48.836;10.092;2023-05-07T00:26:03;2.40;;;1.37;;
12956;SDS011;6543;48.836;10.092;2023-05-07T00:28:30;4.33;;;2.17;;
12956;SDS011;6543;48.836;10.092;2023-05-07T00:30:57;6.93;;;1.60;;
12956;SDS011;6543;48.836;10.092;2023-05-07T00:33:31;5.87;;;1.50;;
12956;SDS011;6543;48.836;10.092;2023-05-07T00:35:58;1.67;;;1.47;;
12956;SDS011;6543;48.836;10.092;2023-05-07T00:38:26;3.67;;;1.30;;
12956;SDS011;6543;48.836;10.092;2023-05-07T00:40:54;1.40;;;1.27;;
12956;SDS011;6543;48.836;10.092;2023-05-07T00:43:20;3.73;;;1.40;;
12956;SDS011;6543;48.836;10.092;2023-05-07T00:45:47;1.47;;;1.00;;
12956;SDS011;6543;48.836;10.092;2023-05-07T00:48:15;2.07;;;1.30;;
12956;SDS011;6543;48.836;10.092;2023-05-07T00:50:42;3.60;;;1.33;;
12956;SDS011;6543;48.836;10.092;2023-05-07T00:53:10;4.10;;;1.20;;
12956;SDS011;6543;48.836;10.092;2023-05-07T00:55:38;4.37;;;1.50;;
12956;SDS011;6543;48.836;10.092;2023-05-07T00:58:06;4.67;;;1.40;;
12956;SDS011;6543;48.836;10.092;2023-05-07T01:00:33;5.37;;;1.60;;
12956;SDS011;6543;48.836;10.092;2023-05-07T01:03:00;3.87;;;1.67;;
12956;SDS011;6543;48.836;10.092;2023-05-07T01:05:27;3.20;;;1.37;;
12956;SDS011;6543;48.836;10.092;2023-05-07T01:07:55;2.77;;;1.37;;
12956;SDS011;6543;48.836;10.092;2023-05-07T01:10:24;2.50;;;1.30;;
12956;SDS011;6543;48.836;10.092;2023-05-07T01:12:51;1.47;;;1.33;;
12956;SDS011;6543;48.836;10.092;2023-05-07T01:15:21;2.00;;;1.57;;
12956;SDS011;6543;48.836;10.092;2023-05-07T01:17:47;5.83;;;1.80;;
12956;SDS011;6543;48.836;10.092;2023-05-07T01:20:14;3.90;;;1.80;;
12956;SDS011;6543;48.836;10.092;2023-05-07T01:22:43;2.07;;;1.50;;
12956;SDS011;6543;48.836;10.092;2023-05-07T01:25:10;1.20;;;1.10;;
12956;SDS011;6543;48.836;10.092;2023-05-07T01:27:38;2.57;;;1.57;;
12956;SDS011;6543;48.836;10.092;2023-05-07T01:30:06;1.93;;;1.80;;
12956;SDS011;6543;48.836;10.092;2023-05-07T01:32:35;2.50;;;1.47;;
12956;SDS011;6543;48.836;10.092;2023-05-07T01:35:07;3.07;;;1.70;;
12956;SDS011;6543;48.836;10.092;2023-05-07T01:37:37;1.50;;;1.40;;
12956;SDS011;6543;48.836;10.092;2023-05-07T01:40:06;3.63;;;1.77;;
12956;SDS011;6543;48.836;10.092;2023-05-07T01:42:34;5.47;;;2.40;;
12956;SDS011;6543;48.836;10.092;2023-05-07T01:45:02;2.57;;;2.33;;
12956;SDS011;6543;48.836;10.092;2023-05-07T01:47:29;3.73;;;2.63;;
12956;SDS011;6543;48.836;10.092;2023-05-07T01:49:56;2.50;;;1.70;;
12956;SDS011;6543;48.836;10.092;2023-05-07T01:52:24;2.97;;;1.57;;
12956;SDS011;6543;48.836;10.092;2023-05-07T01:54:51;3.80;;;1.33;;
12956;SDS011;6543;48.836;10.092;2023-05-07T01:57:19;1.43;;;1.20;;
12956;SDS011;6543;48.836;10.092;2023-05-07T01:59:46;1.93;;;1.00;;
12956;SDS011;6543;48.836;10.092;2023-05-07T02:02:12;2.50;;;1.60;;
12956;SDS011;6543;48.836;10.092;2023-05-07T02:04:39;3.07;;;1.50;;
12956;SDS011;6543;48.836;10.092;2023-05-07T02:07:06;2.70;;;2.50;;
12956;SDS011;6543;48.836;10.092;2023-05-07T02:09:33;2.90;;;2.60;;
12956;SDS011;6543;48.836;10.092;2023-05-07T02:12:00;5.43;;;3.23;;
12956;SDS011;6543;48.836;10.092;2023-05-07T02:14:28;4.60;;;3.13;;
12956;SDS011;6543;48.836;10.092;2023-05-07T02:16:55;3.40;;;2.97;;
12956;SDS011;6543;48.836;10.092;2023-05-07T02:19:21;4.10;;;3.10;;
12956;SDS011;6543;48.836;10.092;2023-05-07T02:21:48;5.33;;;3.30;;
12956;SDS011;6543;48.836;10.092;2023-05-07T02:24:16;4.70;;;3.50;;
12956;SDS011;6543;48.836;10.092;2023-05-07T02:26:42;5.43;;;3.67;;
12956;SDS011;6543;48.836;10.092;2023-05-07T02:29:09;5.83;;;4.33;;
12956;SDS011;6543;48.836;10.092;2023-05-07T02:31:37;4.23;;;3.83;;
12956;SDS011;6543;48.836;10.092;2023-05-07T02:34:04;5.47;;;3.60;;
12956;SDS011;6543;48.836;10.092;2023-05-07T02:36:31;2.57;;;1.90;;
12956;SDS011;6543;48.836;10.092;2023-05-07T02:38:58;5.77;;;1.67;;
12956;SDS011;6543;48.836;10.092;2023-05-07T02:41:25;4.00;;;1.90;;
12956;SDS011;6543;48.836;10.092;2023-05-07T02:43:53;3.80;;;2.63;;
12956;SDS011;6543;48.836;10.092;2023-05-07T02:46:19;4.93;;;1.63;;
12956;SDS011;6543;48.836;10.092;2023-05-07T02:48:48;4.57;;;2.70;;
12956;SDS011;6543;48.836;10.092;2023-05-07T02:51:14;3.80;;;3.40;;
12956;SDS011;6543;48.836;10.092;2023-05-07T02:53:42;3.93;;;3.43;;
12956;SDS011;6543;48.836;10.092;2023-05-07T02:56:09;6.90;;;3.17;;
12956;SDS011;6543;48.836;10.092;2023-05-07T02:58:36;3.50;;;2.57;;
12956;SDS011;6543;48.836;10.092;2023-05-07T03:01:04;3.50;;;3.20;;
12956;SDS011;6543;48.836;10.092;2023-05-07T03:03:31;5.30;;;2.97;;
12956;SDS011;6543;48.836;10.092;2023-05-07T03:05:59;4.67;;;3.20;;
12956;SDS011;6543;48.836;10.092;2023-05-07T03:08:26;3.50;;;3.20;;
12956;SDS011;6543;48.836;10.092;2023-05-07T03:10:53;4.67;;;3.97;;
12956;SDS011;6543;48.836;10.092;2023-05-07T03:13:20;4.50;;;3.60;;
12956;SDS011;6543;48.836;10.092;2023-05-07T03:15:47;3.73;;;3.43;;
12956;SDS011;6543;48.836;10.092;2023-05-07T03:18:14;5.73;;;3.90;;
12956;SDS011;6543;48.836;10.092;2023-05-07T03:20:41;5.80;;;3.60;;
12956;SDS011;6543;48.836;10.092;2023-05-07T03:23:09;6.37;;;3.47;;
12956;SDS011;6543;48.836;10.092;2023-05-07T03:25:36;5.10;;;3.10;;
12956;SDS011;6543;48.836;10.092;2023-05-07T03:28:03;6.17;;;3.67;;
12956;SDS011;6543;48.836;10.092;2023-05-07T03:30:30;5.73;;;3.80;;
12956;SDS011;6543;48.836;10.092;2023-05-07T03:32:57;3.80;;;3.40;;
12956;SDS011;6543;48.836;10.092;2023-05-07T03:35:24;6.20;;;3.40;;
12956;SDS011;6543;48.836;10.092;2023-05-07T03:37:51;5.33;;;3.33;;
12956;SDS011;6543;48.836;10.092;2023-05-07T03:40:19;3.67;;;3.37;;
12956;SDS011;6543;48.836;10.092;2023-05-07T03:42:46;3.83;;;3.43;;
12956;SDS011;6543;48.836;10.092;2023-05-07T03:45:13;4.83;;;3.97;;
12956;SDS011;6543;48.836;10.092;2023-05-07T03:47:40;4.10;;;3.33;;
12956;SDS011;6543;48.836;10.092;2023-05-07T03:50:07;3.87;;;3.17;;
12956;SDS011;6543;48.836;10.092;2023-05-07T03:52:35;8.33;;;3.53;;
12956;SDS011;6543;48.836;10.092;2023-05-07T03:55:02;6.10;;;3.07;;
12956;SDS011;6543;48.836;10.092;2023-05-07T03:57:32;4.23;;;3.00;;
12956;SDS011;6543;48.836;10.092;2023-05-07T03:59:59;4.83;;;3.40;;
12956;SDS011;6543;48.836;10.092;2023-05-07T04:02:25;5.03;;;3.43;;
12956;SDS011;6543;48.836;10.092;2023-05-07T04:04:52;3.50;;;3.20;;
12956;SDS011;6543;48.836;10.092;2023-05-07T04:07:19;5.07;;;3.53;;
12956;SDS011;6543;48.836;10.092;2023-05-07T04:09:46;6.83;;;3.53;;
12956;SDS011;6543;48.836;10.092;2023-05-07T04:12:13;4.03;;;3.63;;
12956;SDS011;6543;48.836;10.092;2023-05-07T04:14:42;3.30;;;2.93;;
12956;SDS011;6543;48.836;10.092;2023-05-07T04:17:09;9.00;;;3.33;;
12956;SDS011;6543;48.836;10.092;2023-05-07T04:19:36;6.67;;;3.57;;
12956;SDS011;6543;48.836;10.092;2023-05-07T04:22:03;4.47;;;2.97;;
12956;SDS011;6543;48.836;10.092;2023-05-07T04:24:30;7.20;;;3.20;;
12956;SDS011;6543;48.836;10.092;2023-05-07T04:26:58;4.83;;;3.00;;
12956;SDS011;6543;48.836;10.092;2023-05-07T04:29:25;5.33;;;3.23;;
12956;SDS011;6543;48.836;10.092;2023-05-07T04:31:53;4.10;;;3.47;;
12956;SDS011;6543;48.836;10.092;2023-05-07T04:34:21;6.73;;;3.50;;
12956;SDS011;6543;48.836;10.092;2023-05-07T04:36:48;7.30;;;2.90;;
12956;SDS011;6543;48.836;10.092;2023-05-07T04:39:15;3.80;;;2.30;;
12956;SDS011;6543;48.836;10.092;2023-05-07T04:41:42;4.03;;;1.90;;
12956;SDS011;6543;48.836;10.092;2023-05-07T04:44:09;3.43;;;1.90;;
12956;SDS011;6543;48.836;10.092;2023-05-07T04:46:36;1.70;;;1.57;;
12956;SDS011;6543;48.836;10.092;2023-05-07T04:49:04;1.80;;;1.70;;
12956;SDS011;6543;48.836;10.092;2023-05-07T04:51:31;2.90;;;1.90;;
12956;SDS011;6543;48.836;10.092;2023-05-07T04:53:58;1.87;;;1.77;;
12956;SDS011;6543;48.836;10.092;2023-05-07T04:56:27;1.70;;;1.60;;
12956;SDS011;6543;48.836;10.092;2023-05-07T04:58:55;3.73;;;2.00;;
12956;SDS011;6543;48.836;10.092;2023-05-07T05:01:21;6.37;;;2.23;;
12956;SDS011;6543;48.836;10.092;2023-05-07T05:03:48;2.40;;;1.87;;
12956;SDS011;6543;48.836;10.092;2023-05-07T05:06:17;3.17;;;1.90;;
12956;SDS011;6543;48.836;10.092;2023-05-07T05:08:43;2.47;;;1.90;;
12956;SDS011;6543;48.836;10.092;2023-05-07T05:11:10;2.57;;;2.03;;
12956;SDS011;6543;48.836;10.092;2023-05-07T05:13:37;1.60;;;1.50;;
12956;SDS011;6543;48.836;10.092;2023-05-07T05:16:04;5.73;;;2.10;;
12956;SDS011;6543;48.836;10.092;2023-05-07T05:18:32;1.70;;;1.60;;
12956;SDS011;6543;48.836;10.092;2023-05-07T05:20:59;2.23;;;2.03;;
12956;SDS011;6543;48.836;10.092;2023-05-07T05:23:27;2.37;;;1.93;;
12956;SDS011;6543;48.836;10.092;2023-05-07T05:25:55;4.93;;;2.50;;
12956;SDS011;6543;48.836;10.092;2023-05-07T05:28:22;2.43;;;1.80;;
12956;SDS011;6543;48.836;10.092;2023-05-07T05:30:49;2.87;;;2.03;;
12956;SDS011;6543;48.836;10.092;2023-05-07T05:33:16;2.33;;;2.13;;
12956;SDS011;6543;48.836;10.092;2023-05-07T05:35:43;4.50;;;2.20;;
12956;SDS011;6543;48.836;10.092;2023-05-07T05:38:10;3.67;;;2.53;;
12956;SDS011;6543;48.836;10.092;2023-05-07T05:40:38;4.53;;;2.07;;
12956;SDS011;6543;48.836;10.092;2023-05-07T05:43:05;1.47;;;1.37;;
12956;SDS011;6543;48.836;10.092;2023-05-07T05:45:32;2.77;;;1.90;;
12956;SDS011;6543;48.836;10.092;2023-05-07T05:47:59;4.33;;;2.10;;
12956;SDS011;6543;48.836;10.092;2023-05-07T05:50:26;2.57;;;2.07;;
12956;SDS011;6543;48.836;10.092;2023-05-07T05:52:53;2.63;;;2.20;;
12956;SDS011;6543;48.836;10.092;2023-05-07T05:55:20;1.70;;;1.60;;
12956;SDS011;6543;48.836;10.092;2023-05-07T05:57:50;4.77;;;2.10;;
12956;SDS011;6543;48.836;10.092;2023-05-07T06:00:17;2.20;;;2.00;;
12956;SDS011;6543;48.836;10.092;2023-05-07T06:02:47;3.20;;;2.33;;
12956;SDS011;6543;48.836;10.092;2023-05-07T06:05:14;3.47;;;2.43;;
12956;SDS011;6543;48.836;10.092;2023-05-07T06:07:41;3.07;;;2.10;;
12956;SDS011;6543;48.836;10.092;2023-05-07T06:10:08;3.83;;;2.07;;
12956;SDS011;6543;48.836;10.092;2023-05-07T06:12:35;4.00;;;2.17;;
12956;SDS011;6543;48.836;10.092;2023-05-07T06:15:03;2.27;;;2.07;;
12956;SDS011;6543;48.836;10.092;2023-05-07T06:17:31;1.90;;;1.80;;
12956;SDS011;6543;48.836;10.092;2023-05-07T06:19:57;3.03;;;2.40;;
12956;SDS011;6543;48.836;10.092;2023-05-07T06:22:24;2.53;;;2.17;;
12956;SDS011;6543;48.836;10.092;2023-05-07T06:24:51;3.67;;;2.20;;
12956;SDS011;6543;48.836;10.092;2023-05-07T06:27:18;3.57;;;2.40;;
12956;SDS011;6543;48.836;10.092;2023-05-07T06:29:47;2.47;;;2.27;;
12956;SDS011;6543;48.836;10.092;2023-05-07T06:32:16;2.10;;;2.00;;
12956;SDS011;6543;48.836;10.092;2023-05-07T06:34:43;2.17;;;1.90;;
12956;SDS011;6543;48.836;10.092;2023-05-07T06:37:09;2.33;;;2.10;;
12956;SDS011;6543;48.836;10.092;2023-05-07T06:39:36;2.57;;;2.13;;
12956;SDS011;6543;48.836;10.092;2023-05-07T06:42:03;3.13;;;1.70;;
12956;SDS011;6543;48.836;10.092;2023-05-07T06:44:30;4.23;;;2.00;;
12956;SDS011;6543;48.836;10.092;2023-05-07T06:46:57;2.53;;;2.33;;
12956;SDS011;6543;48.836;10.092;2023-05-07T06:49:26;2.23;;;2.13;;
12956;SDS011;6543;48.836;10.092;2023-05-07T06:51:53;2.30;;;2.10;;
12956;SDS011;6543;48.836;10.092;2023-05-07T06:54:20;2.40;;;2.20;;
12956;SDS011;6543;48.836;10.092;2023-05-07T06:56:47;7.73;;;1.80;;
12956;SDS011;6543;48.836;10.092;2023-05-07T06:59:14;1.97;;;1.80;;
12956;SDS011;6543;48.836;10.092;2023-05-07T07:01:42;3.37;;;2.00;;
12956;SDS011;6543;48.836;10.092;2023-05-07T07:04:09;2.70;;;1.90;;
12956;SDS011;6543;48.836;10.092;2023-05-07T07:06:37;4.93;;;2.07;;
12956;SDS011;6543;48.836;10.092;2023-05-07T07:09:04;2.27;;;1.83;;
12956;SDS011;6543;48.836;10.092;2023-05-07T07:11:30;2.47;;;1.70;;
12956;SDS011;6543;48.836;10.092;2023-05-07T07:13:57;3.80;;;1.70;;
12956;SDS011;6543;48.836;10.092;2023-05-07T07:16:24;1.40;;;1.30;;
12956;SDS011;6543;48.836;10.092;2023-05-07T07:18:51;2.80;;;1.75;;
12956;SDS011;6543;48.836;10.092;2023-05-07T07:21:18;1.88;;;1.58;;
12956;SDS011;6543;48.836;10.092;2023-05-07T07:23:46;2.83;;;1.80;;
12956;SDS011;6543;48.836;10.092;2023-05-07T07:26:13;3.90;;;1.90;;
12956;SDS011;6543;48.836;10.092;2023-05-07T07:28:43;2.22;;;1.40;;
12956;SDS011;6543;48.836;10.092;2023-05-07T07:31:10;2.55;;;1.33;;
12956;SDS011;6543;48.836;10.092;2023-05-07T07:33:37;3.10;;;1.40;;
12956;SDS011;6543;48.836;10.092;2023-05-07T07:36:05;1.48;;;1.23;;
12956;SDS011;6543;48.836;10.092;2023-05-07T07:38:32;1.63;;;0.90;;
12956;SDS011;6543;48.836;10.092;2023-05-07T07:41:01;1.50;;;1.02;;
12956;SDS011;6543;48.836;10.092;2023-05-07T07:43:28;1.77;;;1.33;;
12956;SDS011;6543;48.836;10.092;2023-05-07T07:45:55;1.35;;;1.25;;
12956;SDS011;6543;48.836;10.092;2023-05-07T07:48:22;1.65;;;1.27;;
12956;SDS011;6543;48.836;10.092;2023-05-07T07:50:49;4.10;;;1.30;;
12956;SDS011;6543;48.836;10.092;2023-05-07T07:53:16;1.98;;;1.33;;
12956;SDS011;6543;48.836;10.092;2023-05-07T07:55:44;2.15;;;1.00;;
12956;SDS011;6543;48.836;10.092;2023-05-07T07:58:12;4.45;;;1.27;;
12956;SDS011;6543;48.836;10.092;2023-05-07T08:00:39;1.95;;;0.93;;
12956;SDS011;6543;48.836;10.092;2023-05-07T08:03:05;1.00;;;1.00;;
12956;SDS011;6543;48.836;10.092;2023-05-07T08:05:35;1.30;;;1.00;;
12956;SDS011;6543;48.836;10.092;2023-05-07T08:08:03;2.50;;;1.10;;
12956;SDS011;6543;48.836;10.092;2023-05-07T08:10:30;3.08;;;1.00;;
12956;SDS011;6543;48.836;10.092;2023-05-07T08:12:59;1.10;;;0.80;;
12956;SDS011;6543;48.836;10.092;2023-05-07T08:15:30;1.70;;;1.02;;
12956;SDS011;6543;48.836;10.092;2023-05-07T08:17:57;2.38;;;0.90;;
12956;SDS011;6543;48.836;10.092;2023-05-07T08:20:25;1.80;;;0.95;;
12956;SDS011;6543;48.836;10.092;2023-05-07T08:22:53;1.20;;;1.00;;
12956;SDS011;6543;48.836;10.092;2023-05-07T08:25:20;0.80;;;0.80;;
12956;SDS011;6543;48.836;10.092;2023-05-07T08:27:47;3.13;;;1.00;;
12956;SDS011;6543;48.836;10.092;2023-05-07T08:30:14;1.65;;;0.80;;
12956;SDS011;6543;48.836;10.092;2023-05-07T08:32:42;1.67;;;0.93;;
12956;SDS011;6543;48.836;10.092;2023-05-07T08:35:09;3.47;;;1.25;;
12956;SDS011;6543;48.836;10.092;2023-05-07T08:37:36;1.50;;;1.13;;
12956;SDS011;6543;48.836;10.092;2023-05-07T08:40:03;1.10;;;1.00;;
12956;SDS011;6543;48.836;10.092;2023-05-07T08:42:32;4.28;;;1.27;;
12956;SDS011;6543;48.836;10.092;2023-05-07T08:45:04;4.13;;;1.45;;
12956;SDS011;6543;48.836;10.092;2023-05-07T08:47:40;1.38;;;1.08;;
12956;SDS011;6543;48.836;10.092;2023-05-07T08:50:12;2.88;;;1.10;;
12956;SDS011;6543;48.836;10.092;2023-05-07T08:52:39;4.90;;;1.20;;
12956;SDS011;6543;48.836;10.092;2023-05-07T08:55:07;3.70;;;1.67;;
12956;SDS011;6543;48.836;10.092;2023-05-07T08:57:35;2.00;;;1.15;;
12956;SDS011;6543;48.836;10.092;2023-05-07T09:00:02;2.85;;;1.13;;
12956;SDS011;6543;48.836;10.092;2023-05-07T09:02:29;5.47;;;1.10;;
12956;SDS011;6543;48.836;10.092;2023-05-07T09:04:57;1.75;;;0.80;;
12956;SDS011;6543;48.836;10.092;2023-05-07T09:07:25;1.60;;;0.80;;
12956;SDS011;6543;48.836;10.092;2023-05-07T09:09:52;1.23;;;0.90;;
12956;SDS011;6543;48.836;10.092;2023-05-07T09:12:20;1.20;;;0.85;;
12956;SDS011;6543;48.836;10.092;2023-05-07T09:14:47;3.55;;;0.93;;
12956;SDS011;6543;48.836;10.092;2023-05-07T09:17:15;1.80;;;1.00;;
12956;SDS011;6543;48.836;10.092;2023-05-07T09:19:43;1.33;;;1.00;;
12956;SDS011;6543;48.836;10.092;2023-05-07T09:22:12;3.65;;;0.80;;
12956;SDS011;6543;48.836;10.092;2023-05-07T09:24:39;2.90;;;1.15;;
12956;SDS011;6543;48.836;10.092;2023-05-07T09:27:06;1.75;;;1.10;;
12956;SDS011;6543;48.836;10.092;2023-05-07T09:29:38;4.05;;;0.98;;
12956;SDS011;6543;48.836;10.092;2023-05-07T09:32:05;1.77;;;1.08;;
12956;SDS011;6543;48.836;10.092;2023-05-07T09:34:33;1.85;;;1.13;;
12956;SDS011;6543;48.836;10.092;2023-05-07T09:37:00;1.17;;;0.80;;
12956;SDS011;6543;48.836;10.092;2023-05-07T09:39:34;1.20;;;1.02;;
12956;SDS011;6543;48.836;10.092;2023-05-07T09:42:05;1.48;;;1.00;;
12956;SDS011;6543;48.836;10.092;2023-05-07T09:44:32;2.10;;;0.80;;
12956;SDS011;6543;48.836;10.092;2023-05-07T09:47:00;1.42;;;1.00;;
12956;SDS011;6543;48.836;10.092;2023-05-07T09:49:29;3.50;;;1.20;;
12956;SDS011;6543;48.836;10.092;2023-05-07T09:52:00;2.83;;;1.00;;
12956;SDS011;6543;48.836;10.092;2023-05-07T09:54:27;1.23;;;1.05;;
12956;SDS011;6543;48.836;10.092;2023-05-07T09:56:57;3.95;;;0.95;;
12956;SDS011;6543;48.836;10.092;2023-05-07T09:59:27;2.67;;;1.30;;
12956;SDS011;6543;48.836;10.092;2023-05-07T10:01:56;4.57;;;1.30;;
12956;SDS011;6543;48.836;10.092;2023-05-07T10:04:24;1.58;;;1.10;;
12956;SDS011;6543;48.836;10.092;2023-05-07T10:06:52;1.48;;;1.00;;
12956;SDS011;6543;48.836;10.092;2023-05-07T10:09:20;1.13;;;0.95;;
12956;SDS011;6543;48.836;10.092;2023-05-07T10:11:48;1.30;;;0.95;;
12956;SDS011;6543;48.836;10.092;2023-05-07T10:14:17;1.52;;;1.00;;
12956;SDS011;6543;48.836;10.092;2023-05-07T10:16:45;1.85;;;1.33;;
12956;SDS011;6543;48.836;10.092;2023-05-07T10:19:14;1.83;;;1.17;;
12956;SDS011;6543;48.836;10.092;2023-05-07T10:21:44;4.10;;;1.30;;
12956;SDS011;6543;48.836;10.092;2023-05-07T10:24:19;2.55;;;1.20;;
12956;SDS011;6543;48.836;10.092;2023-05-07T10:26:49;2.75;;;1.10;;
12956;SDS011;6543;48.836;10.092;2023-05-07T10:29:21;1.70;;;1.15;;
12956;SDS011;6543;48.836;10.092;2023-05-07T10:31:59;2.85;;;1.10;;
12956;SDS011;6543;48.836;10.092;2023-05-07T10:34:40;3.53;;;1.48;;
12956;SDS011;6543;48.836;10.092;2023-05-07T10:37:10;1.85;;;1.00;;
12956;SDS011;6543;48.836;10.092;2023-05-07T10:39:38;1.65;;;1.25;;
12956;SDS011;6543;48.836;10.092;2023-05-07T10:42:08;2.58;;;1.20;;
12956;SDS011;6543;48.836;10.092;2023-05-07T10:44:37;1.17;;;1.00;;
12956;SDS011;6543;48.836;10.092;2023-05-07T10:47:04;3.60;;;1.15;;
12956;SDS011;6543;48.836;10.092;2023-05-07T10:49:34;3.83;;;1.10;;
12956;SDS011;6543;48.836;10.092;2023-05-07T10:52:14;1.67;;;1.27;;
12956;SDS011;6543;48.836;10.092;2023-05-07T10:54:41;3.95;;;1.67;;
12956;SDS011;6543;48.836;10.092;2023-05-07T11:00:03;2.28;;;0.90;;
12956;SDS011;6543;48.836;10.092;2023-05-07T11:03:05;2.55;;;1.35;;
12956;SDS011;6543;48.836;10.092;2023-05-07T11:05:32;2.80;;;1.48;;
12956;SDS011;6543;48.836;10.092;2023-05-07T11:08:00;2.90;;;1.60;;
12956;SDS011;6543;48.836;10.092;2023-05-07T11:13:16;1.92;;;1.35;;
12956;SDS011;6543;48.836;10.092;2023-05-07T11:15:45;1.67;;;1.30;;
12956;SDS011;6543;48.836;10.092;2023-05-07T11:18:14;1.08;;;1.00;;
12956;SDS011;6543;48.836;10.092;2023-05-07T11:20:52;6.60;;;1.33;;
12956;SDS011;6543;48.836;10.092;2023-05-07T11:26:42;4.00;;;1.35;;
12956;SDS011;6543;48.836;10.092;2023-05-07T11:29:15;1.35;;;1.20;;
12956;SDS011;6543;48.836;10.092;2023-05-07T11:31:45;4.57;;;1.33;;
12956;SDS011;6543;48.836;10.092;2023-05-07T11:34:15;2.17;;;1.23;;
12956;SDS011;6543;48.836;10.092;2023-05-07T11:36:47;3.42;;;1.38;;
12956;SDS011;6543;48.836;10.092;2023-05-07T11:39:25;4.57;;;1.00;;
12956;SDS011;6543;48.836;10.092;2023-05-07T11:41:56;2.05;;;1.08;;
12956;SDS011;6543;48.836;10.092;2023-05-07T11:44:23;1.58;;;1.02;;
12956;SDS011;6543;48.836;10.092;2023-05-07T11:46:51;1.67;;;0.95;;
12956;SDS011;6543;48.836;10.092;2023-05-07T11:49:18;1.75;;;1.10;;
12956;SDS011;6543;48.836;10.092;2023-05-07T11:51:45;2.33;;;0.80;;
12956;SDS011;6543;48.836;10.092;2023-05-07T11:54:15;1.40;;;1.00;;
12956;SDS011;6543;48.836;10.092;2023-05-07T11:56:43;3.15;;;1.00;;
12956;SDS011;6543;48.836;10.092;2023-05-07T11:59:11;2.63;;;0.90;;
12956;SDS011;6543;48.836;10.092;2023-05-07T12:01:38;3.00;;;0.93;;
12956;SDS011;6543;48.836;10.092;2023-05-07T12:04:06;1.67;;;1.00;;
12956;SDS011;6543;48.836;10.092;2023-05-07T12:06:35;2.60;;;1.00;;
12956;SDS011;6543;48.836;10.092;2023-05-07T12:09:03;0.80;;;0.80;;
12956;SDS011;6543;48.836;10.092;2023-05-07T12:11:32;3.55;;;1.17;;
12956;SDS011;6543;48.836;10.092;2023-05-07T12:13:59;3.92;;;1.00;;
12956;SDS011;6543;48.836;10.092;2023-05-07T12:16:26;2.70;;;0.85;;
12956;SDS011;6543;48.836;10.092;2023-05-07T12:18:54;0.82;;;0.82;;
12956;SDS011;6543;48.836;10.092;2023-05-07T12:21:25;2.85;;;1.02;;
12956;SDS011;6543;48.836;10.092;2023-05-07T12:23:52;1.58;;;1.13;;
12956;SDS011;6543;48.836;10.092;2023-05-07T12:26:19;1.65;;;0.90;;
12956;SDS011;6543;48.836;10.092;2023-05-07T12:28:46;2.90;;;0.98;;
12956;SDS011;6543;48.836;10.092;2023-05-07T12:31:13;6.25;;;1.20;;
12956;SDS011;6543;48.836;10.092;2023-05-07T12:33:41;1.40;;;1.05;;
12956;SDS011;6543;48.836;10.092;2023-05-07T12:36:08;4.10;;;1.20;;
12956;SDS011;6543;48.836;10.092;2023-05-07T12:38:39;2.03;;;0.93;;
12956;SDS011;6543;48.836;10.092;2023-05-07T12:41:07;1.15;;;1.05;;
12956;SDS011;6543;48.836;10.092;2023-05-07T12:43:35;1.40;;;1.00;;
12956;SDS011;6543;48.836;10.092;2023-05-07T12:46:04;1.90;;;1.00;;
12956;SDS011;6543;48.836;10.092;2023-05-07T12:48:33;2.00;;;0.93;;
12956;SDS011;6543;48.836;10.092;2023-05-07T12:51:02;2.25;;;1.35;;
12956;SDS011;6543;48.836;10.092;2023-05-07T12:53:29;2.97;;;1.05;;
12956;SDS011;6543;48.836;10.092;2023-05-07T12:55:59;2.70;;;0.85;;
12956;SDS011;6543;48.836;10.092;2023-05-07T12:58:26;1.35;;;0.95;;
12956;SDS011;6543;48.836;10.092;2023-05-07T13:00:54;1.83;;;0.90;;
12956;SDS011;6543;48.836;10.092;2023-05-07T13:03:24;1.52;;;1.15;;
12956;SDS011;6543;48.836;10.092;2023-05-07T13:05:52;1.20;;;1.13;;
12956;SDS011;6543;48.836;10.092;2023-05-07T13:08:23;2.47;;;0.98;;
12956;SDS011;6543;48.836;10.092;2023-05-07T13:10:51;1.35;;;0.85;;
12956;SDS011;6543;48.836;10.092;2023-05-07T13:13:20;2.10;;;1.15;;
12956;SDS011;6543;48.836;10.092;2023-05-07T13:15:47;3.22;;;1.05;;
12956;SDS011;6543;48.836;10.092;2023-05-07T13:18:17;0.93;;;0.93;;
12956;SDS011;6543;48.836;10.092;2023-05-07T13:20:44;1.25;;;1.10;;
12956;SDS011;6543;48.836;10.092;2023-05-07T13:23:11;1.30;;;1.20;;
12956;SDS011;6543;48.836;10.092;2023-05-07T13:25:38;1.17;;;1.08;;
12956;SDS011;6543;48.836;10.092;2023-05-07T13:28:05;1.42;;;0.80;;
12956;SDS011;6543;48.836;10.092;2023-05-07T13:30:33;1.15;;;1.02;;
12956;SDS011;6543;48.836;10.092;2023-05-07T13:33:00;4.45;;;1.33;;
12956;SDS011;6543;48.836;10.092;2023-05-07T13:35:27;1.63;;;1.25;;
12956;SDS011;6543;48.836;10.092;2023-05-07T13:37:54;1.95;;;1.10;;
12956;SDS011;6543;48.836;10.092;2023-05-07T13:40:22;1.33;;;1.20;;
12956;SDS011;6543;48.836;10.092;2023-05-07T13:42:49;1.23;;;1.13;;
12956;SDS011;6543;48.836;10.092;2023-05-07T13:45:17;2.38;;;1.10;;
12956;SDS011;6543;48.836;10.092;2023-05-07T13:47:45;1.40;;;1.30;;
12956;SDS011;6543;48.836;10.092;2023-05-07T13:50:14;2.15;;;1.30;;
12956;SDS011;6543;48.836;10.092;2023-05-07T13:52:42;2.58;;;1.48;;
12956;SDS011;6543;48.836;10.092;2023-05-07T13:55:11;3.30;;;1.00;;
12956;SDS011;6543;48.836;10.092;2023-05-07T13:57:38;2.10;;;1.08;;
12956;SDS011;6543;48.836;10.092;2023-05-07T14:00:05;1.20;;;1.08;;
12956;SDS011;6543;48.836;10.092;2023-05-07T14:02:33;2.38;;;1.20;;
12956;SDS011;6543;48.836;10.092;2023-05-07T14:05:01;3.15;;;1.48;;
12956;SDS011;6543;48.836;10.092;2023-05-07T14:07:29;4.57;;;1.38;;
12956;SDS011;6543;48.836;10.092;2023-05-07T14:09:57;3.20;;;1.48;;
12956;SDS011;6543;48.836;10.092;2023-05-07T14:12:24;1.85;;;1.60;;
12956;SDS011;6543;48.836;10.092;2023-05-07T14:14:50;2.40;;;1.60;;
12956;SDS011;6543;48.836;10.092;2023-05-07T14:17:17;1.42;;;1.30;;
12956;SDS011;6543;48.836;10.092;2023-05-07T14:19:45;3.83;;;1.40;;
12956;SDS011;6543;48.836;10.092;2023-05-07T14:22:14;1.65;;;1.40;;
12956;SDS011;6543;48.836;10.092;2023-05-07T14:24:41;1.33;;;1.23;;
12956;SDS011;6543;48.836;10.092;2023-05-07T14:27:08;5.63;;;1.63;;
12956;SDS011;6543;48.836;10.092;2023-05-07T14:29:34;1.95;;;1.48;;
12956;SDS011;6543;48.836;10.092;2023-05-07T14:32:01;1.60;;;1.27;;
12956;SDS011;6543;48.836;10.092;2023-05-07T14:34:29;2.08;;;1.50;;
12956;SDS011;6543;48.836;10.092;2023-05-07T14:36:56;1.42;;;1.23;;
12956;SDS011;6543;48.836;10.092;2023-05-07T14:39:24;1.50;;;1.23;;
12956;SDS011;6543;48.836;10.092;2023-05-07T14:41:51;4.53;;;1.55;;
12956;SDS011;6543;48.836;10.092;2023-05-07T14:44:19;2.50;;;1.50;;
12956;SDS011;6543;48.836;10.092;2023-05-07T14:46:46;3.60;;;1.30;;
12956;SDS011;6543;48.836;10.092;2023-05-07T14:49:13;3.25;;;1.50;;
12956;SDS011;6543;48.836;10.092;2023-05-07T14:51:42;1.77;;;1.45;;
12956;SDS011;6543;48.836;10.092;2023-05-07T14:54:10;1.65;;;1.50;;
12956;SDS011;6543;48.836;10.092;2023-05-07T14:56:38;3.03;;;2.10;;
12956;SDS011;6543;48.836;10.092;2023-05-07T14:59:05;2.17;;;1.80;;
12956;SDS011;6543;48.836;10.092;2023-05-07T15:01:34;2.63;;;1.33;;